createdAt,value
2019-03-21T00:02:05.852Z,6.15
2019-03-21T00:04:31.707Z,6.18
2019-03-21T00:06:57.534Z,5.98
2019-03-21T00:09:23.407Z,6.08
2019-03-21T00:12:00.380Z,6.02
2019-03-21T00:14:30.221Z,6.20
2019-03-21T00:16:56.194Z,6.30
2019-03-21T00:19:22.055Z,6.31
2019-03-21T00:21:47.870Z,6.20
2019-03-21T00:24:13.900Z,6.09
2019-03-21T00:26:39.852Z,6.19
2019-03-21T00:29:05.707Z,6.16
2019-03-21T00:31:31.532Z,6.13
2019-03-21T00:33:59.491Z,6.04
2019-03-21T00:36:25.343Z,6.07
2019-03-21T00:38:51.444Z,6.05
2019-03-21T00:41:17.365Z,6.05
2019-03-21T00:43:43.290Z,6.05
2019-03-21T00:46:09.149Z,5.87
2019-03-21T00:48:35.079Z,5.79
2019-03-21T00:51:00.996Z,5.82
2019-03-21T00:53:26.860Z,5.89
2019-03-21T00:55:56.495Z,5.91
2019-03-21T00:58:22.660Z,5.90
2019-03-21T01:00:51.577Z,5.75
2019-03-21T01:03:17.461Z,5.68
2019-03-21T01:05:43.395Z,5.68
2019-03-21T01:08:09.333Z,5.67
2019-03-21T01:10:35.406Z,5.76
2019-03-21T01:13:01.347Z,5.83
2019-03-21T01:15:27.275Z,5.66
2019-03-21T01:17:53.257Z,5.64
2019-03-21T01:20:19.100Z,5.58
2019-03-21T01:22:45.302Z,5.51
2019-03-21T01:25:42.497Z,5.37
2019-03-21T01:28:08.453Z,5.30
2019-03-21T01:30:34.452Z,5.26
2019-03-21T01:33:00.309Z,5.26
2019-03-21T01:35:26.144Z,5.28
2019-03-21T01:37:51.987Z,5.22
2019-03-21T01:40:27.476Z,5.14
2019-03-21T01:42:53.390Z,5.10
2019-03-21T01:45:22.213Z,4.99
2019-03-21T01:47:49.256Z,5.01
2019-03-21T01:50:17.709Z,5.01
2019-03-21T01:52:43.900Z,5.03
2019-03-21T01:55:11.408Z,5.08
2019-03-21T01:57:37.652Z,4.99
2019-03-21T02:00:07.426Z,5.06
2019-03-21T02:02:33.402Z,5.10
2019-03-21T02:04:59.409Z,5.04
2019-03-21T02:07:25.248Z,5.00
2019-03-21T02:09:51.062Z,4.99
2019-03-21T02:12:16.953Z,4.95
2019-03-21T02:14:51.803Z,4.84
2019-03-21T02:17:10.518Z,4.83
2019-03-21T02:19:36.543Z,4.84
2019-03-21T02:22:02.627Z,4.78
2019-03-21T02:24:28.567Z,4.76
2019-03-21T02:26:54.461Z,4.65
2019-03-21T02:29:20.400Z,4.65
2019-03-21T02:31:46.224Z,4.70
2019-03-21T02:34:12.278Z,4.56
2019-03-21T02:36:38.116Z,4.61
2019-03-21T02:39:05.153Z,4.68
2019-03-21T02:41:31.192Z,4.57
2019-03-21T02:43:57.159Z,4.57
2019-03-21T02:46:23.250Z,4.54
2019-03-21T02:48:49.344Z,4.66
2019-03-21T02:51:15.305Z,4.61
2019-03-21T02:53:41.282Z,4.63
2019-03-21T02:56:13.917Z,4.61
2019-03-21T02:58:39.820Z,4.45
2019-03-21T03:01:05.890Z,4.48
2019-03-21T03:03:31.855Z,4.47
2019-03-21T03:05:57.759Z,4.44
2019-03-21T03:08:23.599Z,4.43
2019-03-21T03:10:55.702Z,4.42
2019-03-21T03:13:21.678Z,4.32
2019-03-21T03:15:47.518Z,4.27
2019-03-21T03:18:15.359Z,4.31
2019-03-21T03:20:44.840Z,4.22
2019-03-21T03:23:10.912Z,4.22
2019-03-21T03:25:36.877Z,4.32
2019-03-21T03:28:09.475Z,4.32
2019-03-21T03:30:35.310Z,4.21
2019-03-21T03:33:01.277Z,4.12
2019-03-21T03:35:27.389Z,4.12
2019-03-21T03:37:53.491Z,4.07
2019-03-21T03:40:26.022Z,4.22
2019-03-21T03:42:52.008Z,4.36
2019-03-21T03:45:20.937Z,4.36
2019-03-21T03:47:47.066Z,4.34
2019-03-21T03:50:12.907Z,4.24
2019-03-21T03:52:40.870Z,4.24
2019-03-21T03:55:10.560Z,4.28
2019-03-21T03:57:36.565Z,4.26
2019-03-21T04:00:06.224Z,4.35
2019-03-21T04:02:32.313Z,4.35
2019-03-21T04:04:58.238Z,4.32
2019-03-21T04:07:24.297Z,4.38
2019-03-21T04:09:50.338Z,4.19
2019-03-21T04:12:16.294Z,4.19
2019-03-21T04:14:42.267Z,4.20
2019-03-21T04:17:08.085Z,4.22
2019-03-21T04:19:33.926Z,4.25
2019-03-21T04:22:02.550Z,4.05
2019-03-21T04:24:28.546Z,3.97
2019-03-21T04:26:54.599Z,3.84
2019-03-21T04:29:20.440Z,3.84
2019-03-21T04:31:46.401Z,3.83
2019-03-21T04:34:12.245Z,4.01
2019-03-21T04:36:38.077Z,4.04
2019-03-21T04:39:06.331Z,3.98
2019-03-21T04:41:32.210Z,3.89
2019-03-21T04:43:58.274Z,3.89
2019-03-21T04:46:24.139Z,3.93
2019-03-21T04:48:49.978Z,3.93
2019-03-21T04:51:15.831Z,3.85
2019-03-21T04:53:41.677Z,3.75
2019-03-21T04:56:07.861Z,3.70
2019-03-21T04:58:33.801Z,3.64
2019-03-21T05:00:59.856Z,3.55
2019-03-21T05:03:29.783Z,3.58
2019-03-21T05:05:55.833Z,3.58
2019-03-21T05:08:21.896Z,3.71
2019-03-21T05:10:47.834Z,3.65
2019-03-21T05:13:13.674Z,3.67
2019-03-21T05:15:44.570Z,3.63
2019-03-21T05:18:16.522Z,3.72
2019-03-21T05:20:42.474Z,3.66
2019-03-21T05:23:08.364Z,3.68
2019-03-21T05:25:34.309Z,3.65
2019-03-21T05:28:00.155Z,3.73
2019-03-21T05:30:35.731Z,3.73
2019-03-21T05:33:01.731Z,3.74
2019-03-21T05:35:27.572Z,3.82
2019-03-21T05:37:53.402Z,3.94
2019-03-21T05:40:19.671Z,4.00
2019-03-21T05:42:55.149Z,3.97
2019-03-21T05:45:22.724Z,3.88
2019-03-21T05:47:48.580Z,4.07
2019-03-21T05:50:16.021Z,4.04
2019-03-21T05:52:42.080Z,3.98
2019-03-21T05:55:09.712Z,3.92
2019-03-21T05:57:35.691Z,3.86
2019-03-21T06:00:04.252Z,3.86
2019-03-21T06:02:30.066Z,3.91
2019-03-21T06:04:55.896Z,3.89
2019-03-21T06:07:25.621Z,3.97
2019-03-21T06:09:51.481Z,4.00
2019-03-21T06:12:17.333Z,4.13
2019-03-21T06:14:52.834Z,4.17
2019-03-21T06:17:18.687Z,4.26
2019-03-21T06:19:48.366Z,4.26
2019-03-21T06:22:27.039Z,4.36
2019-03-21T06:25:15.943Z,4.36
2019-03-21T06:27:42.000Z,4.54
2019-03-21T06:30:08.558Z,4.54
2019-03-21T06:32:34.470Z,4.81
2019-03-21T06:35:00.394Z,4.81
2019-03-21T06:37:28.586Z,4.84
2019-03-21T06:39:54.481Z,5.03
2019-03-21T06:42:20.331Z,5.11
2019-03-21T06:44:46.154Z,5.30
2019-03-21T06:47:12.112Z,5.37
2019-03-21T06:49:38.029Z,5.34
2019-03-21T06:52:04.177Z,5.57
2019-03-21T06:54:30.027Z,5.55
2019-03-21T06:56:55.884Z,5.71
2019-03-21T06:59:21.781Z,5.89
2019-03-21T07:01:47.811Z,5.91
2019-03-21T07:04:13.663Z,6.07
2019-03-21T07:06:39.710Z,6.18
2019-03-21T07:09:06.660Z,6.26
2019-03-21T07:11:32.496Z,6.29
2019-03-21T07:13:58.469Z,6.40
2019-03-21T07:16:24.309Z,6.42
2019-03-21T07:18:50.242Z,6.58
2019-03-21T07:21:16.181Z,6.64
2019-03-21T07:23:45.250Z,6.78
2019-03-21T07:26:11.195Z,6.99
2019-03-21T07:28:38.647Z,7.07
2019-03-21T07:31:04.755Z,7.22
2019-03-21T07:33:30.657Z,7.07
2019-03-21T07:35:56.582Z,7.15
2019-03-21T07:38:22.452Z,7.40
2019-03-21T07:40:48.294Z,7.53
2019-03-21T07:43:14.155Z,7.63
2019-03-21T07:45:40.052Z,7.54
2019-03-21T07:48:05.981Z,7.66
2019-03-21T07:50:31.935Z,7.55
2019-03-21T07:52:57.798Z,7.70
2019-03-21T07:55:23.759Z,7.88
2019-03-21T07:57:49.735Z,8.19
2019-03-21T08:00:17.093Z,8.28
2019-03-21T08:02:43.147Z,8.27
2019-03-21T08:05:10.228Z,8.45
2019-03-21T08:07:36.082Z,8.51
2019-03-21T08:10:04.339Z,8.77
2019-03-21T08:12:30.308Z,8.91
2019-03-21T08:14:56.261Z,8.99
2019-03-21T08:17:22.070Z,9.15
2019-03-21T08:19:47.944Z,9.21
2019-03-21T08:22:13.805Z,9.35
2019-03-21T08:24:39.803Z,9.51
2019-03-21T08:27:05.784Z,9.44
2019-03-21T08:29:32.103Z,9.68
2019-03-21T08:31:57.944Z,9.82
2019-03-21T08:34:23.779Z,10.05
2019-03-21T08:36:49.708Z,10.17
2019-03-21T08:39:15.707Z,10.16
2019-03-21T08:41:41.553Z,10.27
2019-03-21T08:44:07.589Z,10.24
2019-03-21T08:46:33.430Z,10.36
2019-03-21T08:48:59.358Z,10.38
2019-03-21T08:51:25.408Z,10.52
2019-03-21T08:53:51.588Z,10.48
2019-03-21T08:56:17.435Z,10.57
2019-03-21T08:58:43.654Z,10.82
2019-03-21T09:01:09.702Z,10.74
2019-03-21T09:03:35.640Z,10.87
2019-03-21T09:06:01.575Z,10.91
2019-03-21T09:08:27.475Z,11.12
2019-03-21T09:10:53.325Z,11.18
2019-03-21T09:13:19.150Z,11.10
2019-03-21T09:15:45.187Z,11.12
2019-03-21T09:18:11.051Z,10.76
2019-03-21T09:20:37.087Z,10.88
2019-03-21T09:23:03.073Z,11.11
2019-03-21T09:25:28.967Z,11.16
2019-03-21T09:28:02.554Z,11.15
2019-03-21T09:30:22.842Z,11.62
2019-03-21T09:32:48.686Z,11.04
2019-03-21T09:35:14.778Z,11.51
2019-03-21T09:37:40.615Z,11.61
2019-03-21T09:40:09.390Z,11.42
2019-03-21T09:42:35.233Z,11.42
2019-03-21T09:45:01.270Z,11.70
2019-03-21T09:47:27.120Z,11.66
2019-03-21T09:49:53.059Z,11.75
2019-03-21T09:52:18.982Z,11.73
2019-03-21T09:54:44.930Z,11.85
2019-03-21T09:57:10.873Z,11.60
2019-03-21T09:59:36.715Z,11.58
2019-03-21T10:02:02.837Z,11.83
2019-03-21T10:04:28.709Z,11.84
2019-03-21T10:06:54.653Z,11.97
2019-03-21T10:09:20.611Z,11.94
2019-03-21T10:11:46.438Z,12.38
2019-03-21T10:14:12.282Z,11.97
2019-03-21T10:16:38.369Z,11.91
2019-03-21T10:19:04.303Z,12.25
2019-03-21T10:21:30.154Z,12.13
2019-03-21T10:23:59.056Z,12.29
2019-03-21T10:26:28.525Z,12.42
2019-03-21T10:28:54.359Z,12.29
2019-03-21T10:31:20.250Z,12.39
2019-03-21T10:33:46.085Z,12.59
2019-03-21T10:36:12.129Z,12.96
2019-03-21T10:38:38.309Z,13.02
2019-03-21T10:41:04.368Z,13.07
2019-03-21T10:43:30.230Z,13.00
2019-03-21T10:45:56.176Z,13.15
2019-03-21T10:48:23.565Z,13.31
2019-03-21T10:50:49.573Z,13.15
2019-03-21T10:53:15.463Z,12.94
2019-03-21T10:55:41.322Z,12.91
2019-03-21T10:58:07.834Z,12.99
2019-03-21T11:00:33.926Z,12.77
2019-03-21T11:03:00.000Z,13.20
2019-03-21T11:05:25.955Z,12.62
2019-03-21T11:07:52.033Z,12.43
2019-03-21T11:10:18.068Z,12.96
2019-03-21T11:12:43.920Z,13.38
2019-03-21T11:15:10.058Z,13.06
2019-03-21T11:17:36.004Z,12.69
2019-03-21T11:20:03.896Z,12.27
2019-03-21T11:22:29.806Z,12.69
2019-03-21T11:24:55.631Z,12.69
2019-03-21T11:27:21.735Z,12.67
2019-03-21T11:29:47.566Z,12.94
2019-03-21T11:32:13.655Z,13.32
2019-03-21T11:34:39.628Z,12.90
2019-03-21T11:37:05.443Z,13.24
2019-03-21T11:39:31.318Z,13.49
2019-03-21T11:41:57.172Z,13.72
2019-03-21T11:44:23.028Z,13.91
2019-03-21T11:46:48.897Z,14.00
2019-03-21T11:49:14.745Z,14.41
2019-03-21T11:51:40.688Z,14.09
2019-03-21T11:54:06.645Z,14.10
2019-03-21T11:56:32.493Z,14.52
2019-03-21T11:58:58.348Z,14.66
2019-03-21T12:01:24.278Z,14.70
2019-03-21T12:03:50.119Z,14.65
2019-03-21T12:06:16.001Z,14.10
2019-03-21T12:08:41.937Z,13.89
2019-03-21T12:11:07.878Z,13.87
2019-03-21T12:13:33.770Z,14.14
2019-03-21T12:15:59.598Z,13.81
2019-03-21T12:18:25.493Z,14.16
2019-03-21T12:20:51.340Z,14.28
2019-03-21T12:23:17.283Z,13.88
2019-03-21T12:25:43.098Z,14.43
2019-03-21T12:28:09.036Z,14.28
2019-03-21T12:30:36.444Z,15.10
2019-03-21T12:33:02.989Z,15.63
2019-03-21T12:35:29.066Z,15.71
2019-03-21T12:37:54.934Z,15.61
2019-03-21T12:40:20.880Z,15.52
2019-03-21T12:42:46.825Z,15.47
2019-03-21T12:45:12.972Z,15.92
2019-03-21T12:47:38.908Z,15.92
2019-03-21T12:50:06.846Z,15.32
2019-03-21T12:55:00.394Z,17.55
2019-03-21T12:56:21.938Z,15.93
2019-03-21T12:57:26.357Z,16.83
2019-03-21T12:59:52.418Z,17.83
2019-03-21T13:02:18.491Z,17.34
2019-03-21T13:04:44.444Z,17.91
2019-03-21T13:07:10.289Z,18.33
2019-03-21T13:09:38.474Z,19.18
2019-03-21T13:12:04.290Z,19.47
2019-03-21T13:14:30.111Z,21.32
2019-03-21T13:16:56.018Z,23.37
2019-03-21T13:19:21.877Z,24.45
2019-03-21T13:21:47.735Z,19.68
2019-03-21T13:24:16.417Z,19.61
2019-03-21T13:26:41.470Z,22.76
2019-03-21T13:29:07.359Z,17.10
2019-03-21T13:31:33.182Z,20.97
2019-03-21T13:34:02.947Z,20.71
2019-03-21T13:36:28.882Z,21.08
2019-03-21T13:38:54.835Z,19.62
2019-03-21T13:41:20.687Z,23.06
2019-03-21T13:43:46.571Z,21.63
2019-03-21T13:46:12.499Z,24.52
2019-03-21T13:48:38.499Z,24.31
2019-03-21T13:51:04.322Z,22.67
2019-03-21T13:53:30.231Z,24.04
2019-03-21T13:55:56.117Z,22.97
2019-03-21T13:58:21.999Z,22.76
2019-03-21T14:00:47.849Z,22.45
2019-03-21T14:03:24.647Z,24.16
2019-03-21T14:05:41.553Z,27.07
2019-03-21T14:08:07.413Z,26.31
2019-03-21T14:10:33.299Z,21.95
2019-03-21T14:12:59.247Z,24.93
2019-03-21T14:15:25.181Z,19.89
2019-03-21T14:17:51.084Z,20.68
2019-03-21T14:20:17.320Z,21.06
2019-03-21T14:22:43.193Z,22.31
2019-03-21T14:25:09.361Z,22.50
2019-03-21T14:27:35.389Z,24.17
2019-03-21T14:30:03.299Z,23.74
2019-03-21T14:32:29.142Z,25.18
2019-03-21T14:34:55.136Z,23.89
2019-03-21T14:37:21.093Z,21.44
2019-03-21T14:39:47.114Z,22.07
2019-03-21T14:42:13.150Z,21.08
2019-03-21T14:44:39.017Z,19.43
2019-03-21T14:47:04.977Z,21.58
2019-03-21T14:49:32.763Z,23.75
2019-03-21T14:51:58.618Z,22.90
2019-03-21T14:54:26.031Z,23.66
2019-03-21T14:56:52.053Z,21.09
2019-03-21T14:59:17.905Z,20.18
2019-03-21T15:01:43.906Z,22.98
2019-03-21T15:04:09.786Z,23.04
2019-03-21T15:06:35.615Z,21.38
2019-03-21T15:09:01.615Z,24.01
2019-03-21T15:11:27.548Z,22.81
2019-03-21T15:13:53.362Z,24.48
2019-03-21T15:16:19.340Z,21.76
2019-03-21T15:18:45.237Z,23.36
2019-03-21T15:21:11.159Z,23.64
2019-03-21T15:23:40.830Z,23.32
2019-03-21T15:26:04.772Z,24.42
2019-03-21T15:28:30.718Z,23.06
2019-03-21T15:30:56.724Z,20.94
2019-03-21T15:33:22.672Z,21.34
2019-03-21T15:35:48.625Z,20.80
2019-03-21T15:38:14.589Z,21.82
2019-03-21T15:40:40.415Z,21.48
2019-03-21T15:43:06.403Z,20.88
2019-03-21T15:45:32.447Z,20.80
2019-03-21T15:47:58.543Z,21.84
2019-03-21T15:50:29.875Z,22.25
2019-03-21T15:52:55.937Z,21.84
2019-03-21T15:55:21.789Z,21.01
2019-03-21T15:57:47.655Z,21.28
2019-03-21T16:00:17.455Z,20.05
2019-03-21T16:02:43.299Z,20.09
2019-03-21T16:05:09.340Z,18.11
2019-03-21T16:07:35.424Z,18.35
2019-03-21T16:10:01.610Z,19.21
2019-03-21T16:12:28.291Z,19.32
2019-03-21T16:14:54.120Z,18.79
2019-03-21T16:17:19.940Z,19.22
2019-03-21T16:19:45.887Z,16.91
2019-03-21T16:22:11.742Z,17.00
2019-03-21T16:24:37.622Z,17.29
2019-03-21T16:32:10.749Z,17.97
2019-03-21T16:34:36.692Z,18.12
2019-03-21T16:37:06.151Z,18.30
2019-03-21T16:39:32.111Z,17.67
2019-03-21T16:41:58.041Z,17.07
2019-03-21T16:44:23.972Z,17.14
2019-03-21T16:46:49.828Z,16.76
2019-03-21T16:49:15.687Z,16.63
2019-03-21T16:51:41.547Z,16.45
2019-03-21T16:54:16.557Z,16.13
2019-03-21T16:56:35.220Z,15.69
2019-03-21T16:59:01.057Z,14.82
2019-03-21T17:01:26.919Z,15.12
2019-03-21T17:03:52.807Z,15.01
2019-03-21T17:06:18.762Z,15.16
2019-03-21T17:08:44.719Z,14.64
2019-03-21T17:11:10.723Z,14.40
2019-03-21T17:13:36.674Z,14.25
2019-03-21T17:16:05.526Z,14.25
2019-03-21T17:18:30.498Z,14.23
2019-03-21T17:20:56.521Z,14.27
2019-03-21T17:23:22.378Z,14.18
2019-03-21T17:25:48.223Z,13.94
2019-03-21T17:28:14.162Z,13.89
2019-03-21T17:30:40.049Z,13.76
2019-03-21T17:33:06.079Z,13.71
2019-03-21T17:35:32.142Z,13.71
2019-03-21T17:37:58.046Z,13.59
2019-03-21T17:40:23.925Z,13.63
2019-03-21T17:42:49.916Z,13.64
2019-03-21T17:45:16.869Z,13.51
2019-03-21T17:47:42.949Z,13.47
2019-03-21T17:50:10.993Z,13.41
2019-03-21T17:52:36.845Z,13.32
2019-03-21T17:55:04.976Z,13.54
2019-03-21T17:57:34.765Z,13.28
2019-03-21T17:59:58.572Z,13.17
2019-03-21T18:02:24.948Z,13.09
2019-03-21T18:04:50.882Z,13.20
2019-03-21T18:07:16.914Z,13.15
2019-03-21T18:09:43.023Z,13.08
2019-03-21T18:12:08.844Z,12.98
2019-03-21T18:14:34.789Z,12.89
2019-03-21T18:17:01.338Z,12.83
2019-03-21T18:19:27.316Z,12.59
2019-03-21T18:21:53.243Z,12.25
2019-03-21T18:24:19.266Z,12.12
2019-03-21T18:26:45.055Z,12.01
2019-03-21T18:29:11.001Z,11.85
2019-03-21T18:31:36.872Z,11.78
2019-03-21T18:34:02.911Z,11.71
2019-03-21T18:36:29.218Z,11.60
2019-03-21T18:38:59.516Z,11.56
2019-03-21T18:41:23.136Z,11.64
2019-03-21T18:43:49.156Z,11.60
2019-03-21T18:46:15.020Z,11.48
2019-03-21T18:48:40.951Z,11.48
2019-03-21T18:51:06.929Z,11.38
2019-03-21T18:53:32.846Z,11.23
2019-03-21T18:55:58.785Z,11.16
2019-03-21T18:58:24.674Z,10.99
2019-03-21T19:00:50.590Z,10.92
2019-03-21T19:03:16.448Z,10.82
2019-03-21T19:05:42.293Z,10.87
2019-03-21T19:08:08.136Z,10.84
2019-03-21T19:10:34.479Z,10.67
2019-03-21T19:13:00.304Z,10.65
2019-03-21T19:15:26.194Z,10.58
2019-03-21T19:17:52.024Z,10.42
2019-03-21T19:20:18.218Z,10.36
2019-03-21T19:22:44.391Z,10.26
2019-03-21T19:25:18.327Z,10.27
2019-03-21T19:27:38.754Z,10.20
2019-03-21T19:30:08.202Z,10.25
2019-03-21T19:32:34.098Z,10.15
2019-03-21T19:35:00.038Z,10.18
2019-03-21T19:37:25.887Z,10.31
2019-03-21T19:39:55.539Z,10.27
2019-03-21T19:42:21.654Z,10.32
2019-03-21T19:44:47.626Z,10.19
2019-03-21T19:47:23.257Z,10.17
2019-03-21T19:49:41.174Z,10.18
2019-03-21T19:52:07.252Z,10.22
2019-03-21T19:54:33.197Z,10.04
2019-03-21T19:56:59.159Z,10.11
2019-03-21T19:59:25.095Z,10.10
2019-03-21T20:01:51.809Z,9.99
2019-03-21T20:04:17.665Z,9.90
2019-03-21T20:06:43.595Z,9.95
2019-03-21T20:09:09.505Z,9.89
2019-03-21T20:11:35.440Z,9.88
2019-03-21T20:14:03.861Z,9.99
2019-03-21T20:16:29.197Z,9.93
2019-03-21T20:18:55.152Z,9.89
2019-03-21T20:21:21.042Z,9.77
2019-03-21T20:23:46.879Z,9.65
2019-03-21T20:26:12.753Z,9.63
2019-03-21T20:28:38.740Z,9.53
2019-03-21T20:31:04.576Z,9.46
2019-03-21T20:33:30.528Z,9.50
2019-03-21T20:35:56.420Z,9.38
2019-03-21T20:38:22.244Z,9.40
2019-03-21T20:40:48.166Z,9.43
2019-03-21T20:43:14.058Z,9.33
2019-03-21T20:45:39.888Z,9.41
2019-03-21T20:48:05.849Z,9.25
2019-03-21T20:50:31.714Z,9.26
2019-03-21T20:52:57.537Z,9.15
2019-03-21T20:55:23.601Z,9.17
2019-03-21T20:57:49.535Z,9.19
2019-03-21T21:00:22.567Z,9.12
2019-03-21T21:02:48.882Z,9.07
2019-03-21T21:05:15.009Z,9.12
2019-03-21T21:07:40.977Z,9.07
2019-03-21T21:10:08.624Z,8.99
2019-03-21T21:12:36.407Z,8.95
2019-03-21T21:15:04.980Z,9.02
2019-03-21T21:17:30.892Z,8.99
2019-03-21T21:19:56.876Z,8.91
2019-03-21T21:22:22.752Z,8.87
2019-03-21T21:24:48.665Z,8.81
2019-03-21T21:27:14.552Z,8.79
2019-03-21T21:29:42.959Z,8.77
2019-03-21T21:32:08.326Z,8.74
2019-03-21T21:34:34.352Z,8.76
2019-03-21T21:37:00.282Z,8.69
2019-03-21T21:39:26.300Z,8.64
2019-03-21T21:41:52.198Z,8.61
2019-03-21T21:44:18.025Z,8.60
2019-03-21T21:46:43.872Z,8.57
2019-03-21T21:49:09.792Z,8.56
2019-03-21T21:51:35.657Z,8.49
2019-03-21T21:54:01.504Z,8.51
2019-03-21T21:56:27.339Z,8.53
2019-03-21T21:58:53.221Z,8.46
2019-03-21T22:01:19.319Z,8.44
2019-03-21T22:03:45.194Z,8.50
2019-03-21T22:06:11.047Z,8.59
2019-03-21T22:08:36.974Z,8.65
2019-03-21T22:11:03.042Z,8.67
2019-03-21T22:13:28.984Z,8.53
2019-03-21T22:15:54.802Z,8.43
2019-03-21T22:18:20.643Z,8.20
2019-03-21T22:20:46.535Z,8.20
2019-03-21T22:23:12.348Z,8.09
2019-03-21T22:25:38.296Z,8.01
2019-03-21T22:28:04.343Z,8.01
2019-03-21T22:30:30.180Z,7.94
2019-03-21T22:32:56.010Z,7.93
2019-03-21T22:35:21.958Z,7.89
2019-03-21T22:37:48.069Z,7.89
2019-03-21T22:40:15.310Z,7.94
2019-03-21T22:42:45.148Z,7.93
2019-03-21T22:45:12.819Z,7.79
2019-03-21T22:47:39.050Z,7.72
2019-03-21T22:50:14.745Z,7.86
2019-03-21T22:52:40.321Z,7.79
2019-03-21T22:55:06.753Z,7.86
2019-03-21T22:57:32.643Z,7.79
2019-03-21T22:59:58.480Z,7.79
2019-03-21T23:02:24.423Z,7.74
2019-03-21T23:04:50.359Z,7.74
2019-03-21T23:07:16.611Z,7.77
2019-03-21T23:09:42.451Z,7.83
2019-03-21T23:12:08.296Z,7.79
2019-03-21T23:14:34.127Z,7.80
2019-03-21T23:16:59.946Z,7.78
2019-03-21T23:19:25.971Z,7.79
2019-03-21T23:21:51.924Z,7.75
2019-03-21T23:24:17.888Z,7.72
2019-03-21T23:26:52.520Z,7.67
2019-03-21T23:29:11.576Z,7.65
2019-03-21T23:31:37.502Z,7.69
2019-03-21T23:34:03.352Z,7.62
2019-03-21T23:36:29.189Z,7.62
2019-03-21T23:38:55.164Z,7.63
2019-03-21T23:41:21.007Z,7.50
2019-03-21T23:43:46.891Z,7.38
2019-03-21T23:46:12.956Z,7.30
2019-03-21T23:48:38.786Z,7.15
2019-03-21T23:51:04.717Z,7.17
2019-03-21T23:53:30.603Z,7.15
2019-03-21T23:55:56.514Z,7.13
2019-03-21T23:58:22.462Z,7.14
